Kolomna, Russia
Current Conditions -  °F | °C
As of 11:30 AM on Monday 24 Nov 2014 (Local Time) from UUDD Reporting Station
Overcast Overcast  
Wind Chill: 19°   Ceiling: 500
Heat Index: 27°   Visibility: 4mi
Dew Point: 27°   Wind: 7mph
Humidity: 100%   Direction: 150°SSE
Pressure: 30.68"   Gusts: NA
Location:  55.08°N, 38.78°E
Report Text: UUDD 240830Z 15003MPS 7000 OVC005 M03/M03 Q1039 6429009514290095 NOSIG
Loading
Personal Weather Stations






























Interactive Weather Map New forecast layout! Learn more

10-Day Weather Forecast

Advertisements
Track Severe Weather on mobile